Time;durP1;ratioP1;P1;durP2;ratioP2;P2;SDS_P1;SDS_P2;PMS_P1;PMS_P2;Temp;Humidity;BMP_temperature;BMP_pressure;BME280_temperature;BME280_humidity;BME280_pressure;Samples;Min_cycle;Max_cycle;Signal;HPM_P1;HPM_P2
2022/09/28 00:02:09;;;;;;;7.30;6.17;;;;;;;-150.27;100.00;61272.81;5226408;28;20264;-74
2022/09/28 00:04:40;;;;;;;8.37;6.87;;;;;;;-150.27;100.00;61272.81;5218624;28;20022;-73
2022/09/28 00:07:11;;;;;;;8.20;6.83;;;;;;;-150.27;100.00;61272.81;5215091;28;20476;-74
2022/09/28 00:09:43;;;;;;;8.77;6.60;;;;;;;-150.27;100.00;61272.81;5211674;28;20028;-74
2022/09/28 00:12:14;;;;;;;9.73;6.37;;;;;;;-150.27;100.00;61272.81;5225305;28;20025;-74
2022/09/28 00:14:46;;;;;;;9.13;7.17;;;;;;;-150.27;100.00;61272.81;5217501;28;20065;-73
2022/09/28 00:17:21;;;;;;;9.13;6.87;;;;;;;-150.27;100.00;61272.81;5228712;28;20030;-73
2022/09/28 00:19:52;;;;;;;7.43;6.07;;;;;;;-150.27;100.00;61272.81;5234368;28;20029;-74
2022/09/28 00:22:24;;;;;;;8.97;8.00;;;;;;;-150.27;100.00;61272.81;5219192;28;20034;-74
2022/09/28 00:24:55;;;;;;;12.37;7.67;;;;;;;-150.27;100.00;61272.81;5213160;28;20045;-74
2022/09/28 00:27:26;;;;;;;10.33;8.20;;;;;;;-150.27;100.00;61272.81;5213406;28;20392;-73
2022/09/28 00:29:57;;;;;;;9.10;6.83;;;;;;;-150.27;100.00;61272.81;5217648;28;20585;-74
2022/09/28 00:32:29;;;;;;;9.23;6.57;;;;;;;-150.27;100.00;61272.81;5213434;28;20064;-74
2022/09/28 00:35:00;;;;;;;12.03;7.37;;;;;;;-150.27;100.00;61272.81;5228074;28;20029;-73
2022/09/28 00:37:31;;;;;;;13.37;7.77;;;;;;;-150.27;100.00;61272.81;5220620;28;20033;-73
2022/09/28 00:40:03;;;;;;;10.07;7.23;;;;;;;-150.27;100.00;61272.81;5234826;28;20080;-73
2022/09/28 00:42:34;;;;;;;10.27;7.23;;;;;;;-150.27;100.00;61272.81;5233538;28;20413;-74
2022/09/28 00:45:08;;;;;;;10.23;7.27;;;;;;;-150.27;100.00;61272.81;5232024;28;20040;-73
2022/09/28 00:47:42;;;;;;;12.98;7.70;;;;;;;-150.27;100.00;61272.81;5232547;28;20026;-73
2022/09/28 00:50:27;;;;;;;12.68;7.60;;;;;;;-150.27;100.00;61272.81;5232421;28;20360;-74
2022/09/28 00:53:09;;;;;;;9.00;7.20;;;;;;;-150.27;100.00;61272.81;5217451;28;20034;-74
2022/09/28 00:56:02;;;;;;;9.03;6.93;;;;;;;-150.27;100.00;61272.81;5228119;28;20033;-73
2022/09/28 00:58:38;;;;;;;8.23;6.87;;;;;;;-150.27;100.00;61272.81;5232386;28;20481;-73
2022/09/28 01:01:11;;;;;;;8.70;7.30;;;;;;;-150.27;100.00;61272.81;5215266;28;20034;-73
2022/09/28 01:03:44;;;;;;;8.73;7.43;;;;;;;-150.27;100.00;61272.81;5213151;28;20038;-73
2022/09/28 01:06:19;;;;;;;10.60;7.80;;;;;;;-150.27;100.00;61272.81;5261814;22;20056;-73
2022/09/28 01:08:54;;;;;;;8.40;7.27;;;;;;;-150.27;100.00;61272.81;5211643;28;20040;-73
2022/09/28 01:11:25;;;;;;;11.63;7.30;;;;;;;-150.27;100.00;61272.81;5234553;28;20057;-73
2022/09/28 01:13:58;;;;;;;10.53;8.07;;;;;;;-150.27;100.00;61272.81;5235639;28;20049;-73
2022/09/28 01:17:07;;;;;;;11.53;7.53;;;;;;;-150.27;100.00;61272.81;5236110;28;20435;-73
2022/09/28 01:20:22;;;;;;;15.17;8.00;;;;;;;-150.27;100.00;61272.81;5231128;28;20048;-73
2022/09/28 01:23:14;;;;;;;9.87;7.83;;;;;;;-150.27;100.00;61272.81;5234037;28;20047;-73
2022/09/28 01:25:53;;;;;;;10.90;8.23;;;;;;;-150.27;100.00;61272.81;5235531;28;20033;-73
2022/09/28 01:28:29;;;;;;;10.47;9.17;;;;;;;-150.27;100.00;61272.81;5211759;28;20383;-73
2022/09/28 01:31:04;;;;;;;12.57;9.03;;;;;;;-150.27;100.00;61272.81;5222542;28;20088;-73
2022/09/28 01:34:01;;;;;;;16.00;9.50;;;;;;;-150.27;100.00;61272.81;5219574;28;20357;-73
2022/09/28 01:36:41;;;;;;;11.13;9.03;;;;;;;-150.27;100.00;61272.81;5235567;28;20030;-73
2022/09/28 01:39:19;;;;;;;14.93;9.70;;;;;;;-150.27;100.00;61272.81;5219743;28;20427;-73
2022/09/28 01:41:54;;;;;;;13.90;9.27;;;;;;;-150.27;100.00;61272.81;5215619;28;20030;-73
2022/09/28 01:44:29;;;;;;;13.30;10.40;;;;;;;-150.27;100.00;61272.81;5214157;28;20017;-72
2022/09/28 01:47:03;;;;;;;12.85;10.85;;;;;;;-150.27;100.00;61272.81;5213979;28;20022;-74
2022/09/28 01:49:49;;;;;;;15.30;11.55;;;;;;;-150.27;100.00;61272.81;5215231;28;20566;-73
2022/09/28 01:52:26;;;;;;;14.00;11.27;;;;;;;-150.27;100.00;61272.81;5214865;28;20033;-73
2022/09/28 01:55:06;;;;;;;12.97;10.30;;;;;;;-150.27;100.00;61272.81;5210317;28;20021;-73
2022/09/28 01:57:44;;;;;;;14.30;11.03;;;;;;;-150.27;100.00;61272.81;5238702;28;20492;-73
2022/09/28 02:00:18;;;;;;;14.60;11.57;;;;;;;-150.27;100.00;61272.81;5234802;28;20029;-73
2022/09/28 02:02:55;;;;;;;15.13;12.30;;;;;;;-150.27;100.00;61272.81;5233847;28;20722;-73
2022/09/28 02:05:32;;;;;;;14.93;11.77;;;;;;;-150.27;100.00;61272.81;5234368;28;20092;-73
2022/09/28 02:08:24;;;;;;;14.43;12.37;;;;;;;-150.27;100.00;61272.81;5217999;28;20034;-73
2022/09/28 02:11:16;;;;;;;17.23;12.47;;;;;;;-150.27;100.00;61272.81;5217926;28;20333;-73
2022/09/28 02:14:05;;;;;;;18.00;12.27;;;;;;;-150.27;100.00;61272.81;5234798;28;20052;-73
2022/09/28 02:16:42;;;;;;;12.90;11.27;;;;;;;-150.27;100.00;61272.81;5221961;28;20042;-73
2022/09/28 02:19:17;;;;;;;13.07;11.63;;;;;;;-150.27;100.00;61272.81;5213166;28;20117;-73
2022/09/28 02:22:22;;;;;;;14.83;10.40;;;;;;;-150.27;100.00;61272.81;5229958;28;20037;-73
2022/09/28 02:24:58;;;;;;;13.20;10.30;;;;;;;-150.27;100.00;61272.81;5213859;28;20034;-73
2022/09/28 02:27:46;;;;;;;14.13;10.27;;;;;;;-150.27;100.00;61272.81;5230535;28;20168;-73
2022/09/28 02:30:18;;;;;;;11.87;9.30;;;;;;;-150.27;100.00;61272.81;5234710;28;20025;-73
2022/09/28 02:32:54;;;;;;;11.60;8.80;;;;;;;-150.27;100.00;61272.81;5231671;28;20493;-73
2022/09/28 02:35:26;;;;;;;11.30;9.00;;;;;;;-150.27;100.00;61272.81;5213605;28;20060;-72
2022/09/28 02:37:57;;;;;;;11.07;8.07;;;;;;;-150.27;100.00;61272.81;5232985;28;20029;-73
2022/09/28 02:40:31;;;;;;;11.17;7.93;;;;;;;-150.27;100.00;61272.81;5216596;28;20033;-74
2022/09/28 02:43:21;;;;;;;10.77;8.40;;;;;;;-150.27;100.00;61272.81;5233972;28;20052;-73
2022/09/28 02:46:09;;;;;;;9.47;7.10;;;;;;;-150.27;100.00;61272.81;5229287;28;20060;-73
2022/09/28 02:49:18;;;;;;;8.60;7.70;;;;;;;-150.27;100.00;61272.81;5212794;28;20034;-72
2022/09/28 02:52:06;;;;;;;9.00;7.27;;;;;;;-150.27;100.00;61272.81;5233997;28;20116;-73
2022/09/28 02:54:56;;;;;;;10.80;7.50;;;;;;;-150.27;100.00;61272.81;5233879;28;20075;-73
2022/09/28 02:57:48;;;;;;;8.00;7.20;;;;;;;-150.27;100.00;61272.81;5215802;28;20033;-73
2022/09/28 03:00:22;;;;;;;9.83;6.97;;;;;;;-150.27;100.00;61272.81;5232842;28;20056;-73
2022/09/28 03:03:16;;;;;;;12.02;7.43;;;;;;;-150.27;100.00;61272.81;5233946;28;20121;-74
2022/09/28 03:05:56;;;;;;;8.37;6.90;;;;;;;-150.27;100.00;61272.81;5232438;28;20482;-74
2022/09/28 03:08:41;;;;;;;7.47;6.40;;;;;;;-150.27;100.00;61272.81;5215072;28;20036;-74
2022/09/28 03:11:22;;;;;;;8.17;6.07;;;;;;;-150.27;100.00;61272.81;5216429;28;20077;-74
2022/09/28 03:13:54;;;;;;;8.97;5.93;;;;;;;-150.27;100.00;61272.81;5232179;28;20029;-74
2022/09/28 03:16:26;;;;;;;8.73;6.10;;;;;;;-150.27;100.00;61272.81;5225558;28;20018;-74
2022/09/28 03:18:57;;;;;;;6.87;5.77;;;;;;;-150.27;100.00;61272.81;5213639;28;20080;-74
2022/09/28 03:21:28;;;;;;;8.80;5.60;;;;;;;-150.27;100.00;61272.81;5213060;28;20050;-74
2022/09/28 03:24:00;;;;;;;7.53;5.73;;;;;;;-150.27;100.00;61272.81;5213305;28;20396;-74
2022/09/28 03:26:32;;;;;;;8.80;5.70;;;;;;;-150.27;100.00;61272.81;5211707;28;20412;-74
2022/09/28 03:29:04;;;;;;;11.33;5.30;;;;;;;-150.27;100.00;61272.81;5212693;28;20026;-74
2022/09/28 03:31:35;;;;;;;6.87;4.93;;;;;;;-150.27;100.00;61272.81;5212008;28;20066;-73
2022/09/28 03:34:06;;;;;;;6.17;4.60;;;;;;;-150.27;100.00;61272.81;5208684;28;20061;-74
2022/09/28 03:36:38;;;;;;;7.13;4.83;;;;;;;-150.27;100.00;61272.81;5192090;28;20030;-74
2022/09/28 03:39:09;;;;;;;6.83;4.90;;;;;;;-150.27;100.00;61272.81;5193398;28;20060;-74
2022/09/28 03:41:40;;;;;;;6.30;4.17;;;;;;;-150.27;100.00;61272.81;5192844;28;20034;-74
2022/09/28 03:44:11;;;;;;;7.30;4.13;;;;;;;-150.27;100.00;61272.81;5191306;28;20038;-74
2022/09/28 03:46:43;;;;;;;10.00;5.10;;;;;;;-150.27;100.00;61272.81;5192150;28;20080;-74
2022/09/28 03:49:14;;;;;;;5.60;4.23;;;;;;;-150.27;100.00;61272.81;5205179;28;20041;-74
2022/09/28 03:51:45;;;;;;;5.67;3.90;;;;;;;-150.27;100.00;61272.81;5218578;28;20033;-73
2022/09/28 03:54:17;;;;;;;6.97;4.13;;;;;;;-150.27;100.00;61272.81;5219457;28;20037;-74
2022/09/28 03:56:49;;;;;;;9.87;4.20;;;;;;;-150.27;100.00;61272.81;5216058;28;20385;-74
2022/09/28 03:59:20;;;;;;;6.70;4.00;;;;;;;-150.27;100.00;61272.81;5216251;28;20025;-74
2022/09/28 04:01:51;;;;;;;5.23;3.30;;;;;;;-150.27;100.00;61272.81;5232588;28;20311;-74
2022/09/28 04:04:23;;;;;;;8.20;3.50;;;;;;;-150.27;100.00;61272.81;5214668;28;20108;-74
2022/09/28 04:06:54;;;;;;;5.47;3.60;;;;;;;-150.27;100.00;61272.81;5211429;28;20096;-72
2022/09/28 04:09:25;;;;;;;5.93;3.40;;;;;;;-150.27;100.00;61272.81;5213304;28;20036;-73
2022/09/28 04:11:56;;;;;;;5.23;3.27;;;;;;;-150.27;100.00;61272.81;5212332;28;20042;-73
2022/09/28 04:14:28;;;;;;;14.03;3.57;;;;;;;-150.27;100.00;61272.81;5229963;28;20045;-72
2022/09/28 04:16:59;;;;;;;7.93;3.30;;;;;;;-150.27;100.00;61272.81;5212851;28;20034;-74
2022/09/28 04:19:30;;;;;;;5.50;3.00;;;;;;;-150.27;100.00;61272.81;5211788;28;20546;-73
2022/09/28 04:22:02;;;;;;;6.50;3.20;;;;;;;-150.27;100.00;61272.81;5216482;28;20037;-74
2022/09/28 04:24:33;;;;;;;7.00;3.43;;;;;;;-150.27;100.00;61272.81;5222517;28;20038;-73
2022/09/28 04:29:54;;;;;;;5.00;2.60;;;;;;;-150.27;100.00;61272.81;5212099;28;20496;-74
2022/09/28 04:32:26;;;;;;;5.43;3.00;;;;;;;-150.27;100.00;61272.81;5211502;28;20026;-73
2022/09/28 04:34:57;;;;;;;7.93;2.87;;;;;;;-150.27;100.00;61272.81;5212506;28;20026;-74
2022/09/28 04:37:30;;;;;;;5.70;2.10;;;;;;;-150.27;100.00;61272.81;5212094;28;20117;-74
2022/09/28 04:40:01;;;;;;;3.57;2.10;;;;;;;-150.27;100.00;61272.81;5211753;28;20029;-74
2022/09/28 04:42:32;;;;;;;2.80;2.00;;;;;;;-150.27;100.00;61272.81;5221433;28;20480;-73
2022/09/28 04:45:04;;;;;;;5.83;1.83;;;;;;;-150.27;100.00;61272.81;5216558;28;20079;-74
2022/09/28 04:47:36;;;;;;;6.67;2.20;;;;;;;-150.27;100.00;61272.81;5226089;28;20026;-73
2022/09/28 04:50:07;;;;;;;5.43;2.20;;;;;;;-150.27;100.00;61272.81;5225248;28;20109;-73
2022/09/28 04:52:39;;;;;;;3.53;1.53;;;;;;;-150.27;100.00;61272.81;5223884;28;20026;-73
2022/09/28 04:55:13;;;;;;;4.93;2.30;;;;;;;-150.27;100.00;61272.81;5211635;28;20028;-73
2022/09/28 04:57:44;;;;;;;5.85;1.85;;;;;;;-150.27;100.00;61272.81;5196674;28;20073;-74
2022/09/28 05:00:16;;;;;;;4.07;2.00;;;;;;;-150.27;100.00;61272.81;5224091;28;20025;-73
2022/09/28 05:02:47;;;;;;;2.90;1.43;;;;;;;-150.27;100.00;61272.81;5217905;28;20018;-73
2022/09/28 05:05:19;;;;;;;3.30;1.63;;;;;;;-150.27;100.00;61272.81;5230126;28;20030;-73
2022/09/28 05:07:50;;;;;;;4.40;1.83;;;;;;;-150.27;100.00;61272.81;5225652;28;20065;-73
2022/09/28 05:10:22;;;;;;;4.87;1.63;;;;;;;-150.27;100.00;61272.81;5212723;28;20064;-74
2022/09/28 05:12:53;;;;;;;4.70;1.77;;;;;;;-150.27;100.00;61272.81;5211929;28;20044;-73
2022/09/28 05:15:24;;;;;;;3.47;1.97;;;;;;;-150.27;100.00;61272.81;5211134;28;20484;-73
2022/09/28 05:17:56;;;;;;;5.27;2.03;;;;;;;-150.27;100.00;61272.81;5212651;28;20038;-73
2022/09/28 05:20:27;;;;;;;6.60;2.27;;;;;;;-150.27;100.00;61272.81;5217457;28;20089;-73
2022/09/28 05:22:58;;;;;;;2.87;1.90;;;;;;;-150.27;100.00;61272.81;5210260;28;20018;-73
2022/09/28 05:25:29;;;;;;;5.97;2.03;;;;;;;-150.27;100.00;61272.81;5222113;28;20084;-74
2022/09/28 05:28:02;;;;;;;7.20;2.20;;;;;;;-150.27;100.00;61272.81;5216164;28;20100;-74
2022/09/28 05:30:34;;;;;;;5.30;2.40;;;;;;;-150.27;100.00;61272.81;5228818;28;20060;-74
2022/09/28 05:33:06;;;;;;;6.00;2.77;;;;;;;-150.27;100.00;61272.81;5225539;28;20140;-74
2022/09/28 05:35:38;;;;;;;4.70;2.23;;;;;;;-150.27;100.00;61272.81;5212905;28;20895;-74
2022/09/28 05:38:09;;;;;;;5.17;2.87;;;;;;;-150.27;100.00;61272.81;5221897;28;20037;-74
2022/09/28 05:40:40;;;;;;;5.93;3.43;;;;;;;-150.27;100.00;61272.81;5211649;28;20451;-74
2022/09/28 05:43:12;;;;;;;5.57;3.10;;;;;;;-150.27;100.00;61272.81;5229503;28;20621;-74
2022/09/28 05:45:43;;;;;;;6.93;3.10;;;;;;;-150.27;100.00;61272.81;5221760;28;20420;-73
2022/09/28 05:48:14;;;;;;;3.70;2.80;;;;;;;-150.27;100.00;61272.81;5212330;28;20026;-71
2022/09/28 05:50:52;;;;;;;4.53;3.30;;;;;;;-150.27;100.00;61272.81;5212406;28;20036;-72
2022/09/28 05:53:24;;;;;;;5.07;3.07;;;;;;;-150.27;100.00;61272.81;5212049;28;20045;-71
2022/09/28 05:55:58;;;;;;;6.37;3.90;;;;;;;-150.27;100.00;61272.81;5213726;28;20018;-71
2022/09/28 05:58:30;;;;;;;10.15;4.35;;;;;;;-150.27;100.00;61272.81;5215037;28;20057;-72
2022/09/28 06:01:01;;;;;;;9.00;4.60;;;;;;;-150.27;100.00;61272.81;5216117;28;20107;-73
2022/09/28 06:03:32;;;;;;;7.80;3.83;;;;;;;-150.27;100.00;61272.81;5215036;28;20053;-73
2022/09/28 06:06:03;;;;;;;6.97;4.40;;;;;;;-150.27;100.00;61272.81;5215508;28;20033;-73
2022/09/28 06:08:35;;;;;;;6.73;4.27;;;;;;;-150.27;100.00;61272.81;5219456;28;20026;-73
2022/09/28 06:11:06;;;;;;;10.00;4.80;;;;;;;-150.27;100.00;61272.81;5216359;28;20197;-74
2022/09/28 06:13:40;;;;;;;5.23;3.90;;;;;;;-150.27;100.00;61272.81;5210764;28;20057;-73
2022/09/28 06:16:15;;;;;;;9.10;4.38;;;;;;;-150.27;100.00;61272.81;5215378;28;20025;-73
2022/09/28 06:18:46;;;;;;;;;;;;;;;-150.27;100.00;61272.81;5212904;28;20030;-73
2022/09/28 06:21:18;;;;;;;7.93;4.80;;;;;;;-150.27;100.00;61272.81;5215013;28;20269;-73
2022/09/28 06:23:49;;;;;;;7.57;4.97;;;;;;;-150.27;100.00;61272.81;5213969;28;20058;-73
2022/09/28 06:26:20;;;;;;;9.00;5.07;;;;;;;-150.27;100.00;61272.81;5214655;28;20117;-73
2022/09/28 06:28:51;;;;;;;6.57;5.37;;;;;;;-150.27;100.00;61272.81;5214527;28;20041;-73
2022/09/28 06:31:23;;;;;;;14.63;6.60;;;;;;;-150.27;100.00;61272.81;5214814;28;20116;-71
2022/09/28 06:33:55;;;;;;;11.67;6.23;;;;;;;-150.27;100.00;61272.81;5215527;28;20036;-71
2022/09/28 06:36:32;;;;;;;9.57;6.17;;;;;;;-150.27;100.00;61272.81;5196641;28;20030;-71
2022/09/28 06:39:04;;;;;;;9.17;6.50;;;;;;;-150.27;100.00;61272.81;5208004;28;20492;-71
2022/09/28 06:41:35;;;;;;;12.07;7.00;;;;;;;-150.27;100.00;61272.81;5209155;28;20037;-71
2022/09/28 06:44:06;;;;;;;10.57;7.80;;;;;;;-150.27;100.00;61272.81;5210401;28;20083;-71
2022/09/28 06:46:39;;;;;;;7.83;7.03;;;;;;;-150.27;100.00;61272.81;5209005;28;20042;-72
2022/09/28 06:49:10;;;;;;;13.87;7.40;;;;;;;-150.27;100.00;61272.81;5210620;28;20045;-72
2022/09/28 06:51:41;;;;;;;11.37;7.50;;;;;;;-150.27;100.00;61272.81;5207184;28;20575;-72
2022/09/28 06:54:12;;;;;;;11.00;7.70;;;;;;;-150.27;100.00;61272.81;5208695;28;20026;-73
2022/09/28 06:56:44;;;;;;;10.33;7.87;;;;;;;-150.27;100.00;61272.81;5206505;28;20030;-72
2022/09/28 06:59:15;;;;;;;11.43;7.30;;;;;;;-150.27;100.00;61272.81;5210921;28;20053;-72
2022/09/28 07:01:46;;;;;;;10.83;8.53;;;;;;;-150.27;100.00;61272.81;5211722;28;20038;-73
2022/09/28 07:04:17;;;;;;;9.63;7.60;;;;;;;-150.27;100.00;61272.81;5211191;28;20034;-71
2022/09/28 07:06:49;;;;;;;11.03;7.93;;;;;;;-150.27;100.00;61272.81;5208445;28;20069;-71
2022/09/28 07:09:20;;;;;;;8.93;7.23;;;;;;;-150.27;100.00;61272.81;5208633;28;20018;-71
2022/09/28 07:11:52;;;;;;;11.90;7.17;;;;;;;-150.27;100.00;61272.81;5210830;28;20040;-71
2022/09/28 07:14:23;;;;;;;13.27;7.80;;;;;;;-150.27;100.00;61272.81;5211505;28;20040;-71
2022/09/28 07:16:55;;;;;;;11.13;7.80;;;;;;;-150.27;100.00;61272.81;5208815;28;20046;-72
2022/09/28 07:19:27;;;;;;;9.53;6.50;;;;;;;-150.27;100.00;61272.81;5211717;28;20056;-74
2022/09/28 07:21:58;;;;;;;12.13;7.57;;;;;;;-150.27;100.00;61272.81;5211115;28;20033;-73
2022/09/28 07:24:29;;;;;;;11.20;6.60;;;;;;;-150.27;100.00;61272.81;5211570;28;20026;-72
2022/09/28 07:27:04;;;;;;;10.33;6.57;;;;;;;-150.27;100.00;61272.81;5207111;28;20034;-72
2022/09/28 07:29:35;;;;;;;;;;;;;;;-150.27;100.00;61272.81;5210519;28;20092;-72
2022/09/28 07:32:07;;;;;;;8.40;5.90;;;;;;;-150.27;100.00;61272.81;5209643;28;20223;-71
2022/09/28 07:34:40;;;;;;;7.70;5.40;;;;;;;-150.27;100.00;61272.81;5210006;28;20057;-72
2022/09/28 07:37:12;;;;;;;11.50;6.33;;;;;;;-150.27;100.00;61272.81;5210180;28;20095;-72
2022/09/28 07:42:35;;;;;;;8.13;5.30;;;;;;;-150.27;100.00;61272.81;5210630;28;20030;-73
2022/09/28 07:45:07;;;;;;;6.57;5.53;;;;;;;-150.27;100.00;61272.81;5210299;28;20025;-71
2022/09/28 07:47:38;;;;;;;9.57;5.70;;;;;;;-150.27;100.00;61272.81;5206121;28;20033;-72
2022/09/28 07:50:10;;;;;;;6.67;4.87;;;;;;;-150.27;100.00;61272.81;5209645;28;20245;-72
2022/09/28 07:52:42;;;;;;;7.13;5.27;;;;;;;-150.27;100.00;61272.81;5207463;28;20022;-72
2022/09/28 07:55:13;;;;;;;6.33;3.80;;;;;;;-150.27;100.00;61272.81;5209791;28;20365;-72
2022/09/28 07:57:46;;;;;;;6.60;3.90;;;;;;;-150.27;100.00;61272.81;5207170;28;20022;-73
2022/09/28 08:00:18;;;;;;;8.10;3.60;;;;;;;-150.27;100.00;61272.81;5209433;28;20100;-73
2022/09/28 08:02:49;;;;;;;10.17;3.93;;;;;;;-150.27;100.00;61272.81;5209795;28;20105;-73
2022/09/28 08:05:20;;;;;;;8.43;3.13;;;;;;;-150.27;100.00;61272.81;5207794;28;20502;-73
2022/09/28 08:07:52;;;;;;;4.60;2.80;;;;;;;-150.27;100.00;61272.81;5208817;28;20100;-73
2022/09/28 08:10:24;;;;;;;4.30;2.83;;;;;;;-150.27;100.00;61272.81;5209683;28;20125;-73
2022/09/28 08:13:00;;;;;;;8.13;2.83;;;;;;;-150.27;100.00;61272.81;5207945;28;20038;-73
2022/09/28 08:15:35;;;;;;;4.87;2.87;;;;;;;-150.27;100.00;61272.81;5207148;28;20014;-73
2022/09/28 08:18:06;;;;;;;2.50;2.10;;;;;;;-150.27;100.00;61272.81;5206933;28;20041;-73
2022/09/28 08:23:28;;;;;;;8.02;3.20;;;;;;;-150.27;100.00;61272.81;5209041;28;20029;-73
2022/09/28 08:25:59;;;;;;;3.65;2.38;;;;;;;-150.27;100.00;61272.81;5206560;28;20026;-73
2022/09/28 08:28:31;;;;;;;3.92;2.33;;;;;;;-150.27;100.00;61272.81;5208322;28;20133;-73
2022/09/28 08:31:03;;;;;;;7.70;2.45;;;;;;;-150.27;100.00;61272.81;5209512;28;20026;-74
2022/09/28 08:33:35;;;;;;;2.97;2.10;;;;;;;-150.27;100.00;61272.81;5209123;28;20018;-75
2022/09/28 08:36:08;;;;;;;5.57;2.20;;;;;;;-150.27;100.00;61272.81;5206354;28;20037;-74
2022/09/28 08:38:39;;;;;;;3.17;1.90;;;;;;;-150.27;100.00;61272.81;5208985;28;20030;-74
2022/09/28 08:41:34;;;;;;;5.10;2.10;;;;;;;-150.27;100.00;61272.81;5208983;28;20384;-74
2022/09/28 08:44:15;;;;;;;3.65;2.15;;;;;;;-150.27;100.00;61272.81;5209591;28;20099;-74
2022/09/28 08:46:52;;;;;;;3.70;2.20;;;;;;;-150.27;100.00;61272.81;5205319;28;20037;-74
2022/09/28 08:49:40;;;;;;;5.05;2.20;;;;;;;-150.27;100.00;61272.81;5204454;28;20439;-74
2022/09/28 08:52:23;;;;;;;6.35;2.45;;;;;;;-150.27;100.00;61272.81;5208734;28;20060;-74
2022/09/28 08:55:07;;;;;;;4.00;1.98;;;;;;;-150.27;100.00;61272.81;5206178;28;20113;-74
2022/09/28 08:57:57;;;;;;;3.33;2.08;;;;;;;-150.27;100.00;61272.81;5205149;28;20097;-74
2022/09/28 09:00:37;;;;;;;4.82;2.08;;;;;;;-150.27;100.00;61272.81;5209164;28;20126;-74
2022/09/28 09:03:12;;;;;;;3.95;1.90;;;;;;;-150.27;100.00;61272.81;5208767;28;20064;-74
2022/09/28 09:05:51;;;;;;;7.80;2.55;;;;;;;-150.27;100.00;61272.81;5206048;28;20029;-74
2022/09/28 09:08:51;;;;;;;5.97;1.85;;;;;;;-150.27;100.00;61272.81;5208390;28;20111;-74
2022/09/28 09:11:42;;;;;;;8.25;2.03;;;;;;;-150.27;100.00;61272.81;5150102;28;20046;-74
2022/09/28 09:14:23;;;;;;;4.30;1.75;;;;;;;-150.27;100.00;61272.81;5209102;28;20038;-74
2022/09/28 09:17:00;;;;;;;5.72;2.42;;;;;;;-150.27;100.00;61272.81;5205834;28;20032;-74
2022/09/28 09:19:50;;;;;;;6.00;1.98;;;;;;;-150.27;100.00;61272.81;5208649;28;20269;-74
2022/09/28 09:22:47;;;;;;;8.80;2.50;;;;;;;-150.27;100.00;61272.81;5206559;28;20209;-74
2022/09/28 09:25:24;;;;;;;3.80;2.20;;;;;;;-150.27;100.00;61272.81;5203667;28;20726;-75
2022/09/28 09:28:20;;;;;;;5.32;2.10;;;;;;;-150.27;100.00;61272.81;5207544;28;20013;-74
2022/09/28 09:31:11;;;;;;;3.92;2.00;;;;;;;-150.27;100.00;61272.81;5209647;28;20034;-75
2022/09/28 09:34:08;;;;;;;5.75;2.03;;;;;;;-150.27;100.00;61272.81;5210933;28;20400;-74
2022/09/28 09:37:06;;;;;;;4.50;1.73;;;;;;;-150.27;100.00;61272.81;5209295;28;20069;-74
2022/09/28 09:39:51;;;;;;;6.93;1.85;;;;;;;-150.27;100.00;61272.81;5210848;28;20127;-74
2022/09/28 09:43:01;;;;;;;3.50;1.80;;;;;;;-150.27;100.00;61272.81;5211188;28;20130;-75
2022/09/28 09:46:05;;;;;;;3.97;1.50;;;;;;;-150.27;100.00;61272.81;5208095;28;20435;-74
2022/09/28 09:48:51;;;;;;;3.63;1.98;;;;;;;-150.27;100.00;61272.81;5209874;28;20038;-74
2022/09/28 09:51:50;;;;;;;4.18;1.92;;;;;;;-150.27;100.00;61272.81;5207346;28;20471;-75
2022/09/28 09:54:25;;;;;;;4.03;2.00;;;;;;;-150.27;100.00;61272.81;5209055;28;20569;-75
2022/09/28 09:57:12;;;;;;;6.38;1.60;;;;;;;-150.27;100.00;61272.81;5207225;28;20388;-75
2022/09/28 09:59:44;;;;;;;3.75;1.83;;;;;;;-150.27;100.00;61272.81;5211047;28;20061;-75
2022/09/28 10:02:27;;;;;;;3.90;1.60;;;;;;;-150.27;100.00;61272.81;5210617;28;20125;-74
2022/09/28 10:05:11;;;;;;;1.95;1.33;;;;;;;-150.27;100.00;61272.81;5212257;28;20021;-75
2022/09/28 10:07:49;;;;;;;3.53;1.73;;;;;;;-150.27;100.00;61272.81;5208734;28;20061;-75
2022/09/28 10:10:25;;;;;;;4.57;2.60;;;;;;;-150.27;100.00;61272.81;5211904;28;20042;-74
2022/09/28 10:12:56;;;;;;;6.50;1.83;;;;;;;-150.27;100.00;61272.81;5210605;28;20056;-74
2022/09/28 10:15:30;;;;;;;4.88;1.92;;;;;;;-150.27;100.00;61272.81;5210382;28;20042;-75
2022/09/28 10:18:05;;;;;;;4.35;2.03;;;;;;;-150.27;100.00;61272.81;5215491;28;20365;-74
2022/09/28 10:20:39;;;;;;;4.88;1.80;;;;;;;-150.27;100.00;61272.81;5213516;28;20030;-75
2022/09/28 10:23:22;;;;;;;3.53;1.98;;;;;;;-150.27;100.00;61272.81;5215131;28;20026;-72
2022/09/28 10:25:58;;;;;;;3.33;1.90;;;;;;;-150.27;100.00;61272.81;5215984;28;20030;-73
2022/09/28 10:28:46;;;;;;;8.18;1.80;;;;;;;-150.27;100.00;61272.81;5213701;28;20125;-73
2022/09/28 10:31:36;;;;;;;4.63;1.70;;;;;;;-150.27;100.00;61272.81;5213764;28;20038;-73
2022/09/28 10:34:13;;;;;;;8.98;2.03;;;;;;;-150.27;100.00;61272.81;5210389;28;20045;-71
2022/09/28 10:37:01;;;;;;;3.63;2.15;;;;;;;-150.27;100.00;61272.81;5207393;28;20064;-71
2022/09/28 10:39:54;;;;;;;4.68;1.50;;;;;;;-150.27;100.00;61272.81;5210389;28;20491;-71
2022/09/28 10:42:29;;;;;;;6.60;1.75;;;;;;;-150.27;100.00;61272.81;5208303;28;20416;-71
2022/09/28 10:45:18;;;;;;;3.40;1.77;;;;;;;-150.27;100.00;61272.81;5206927;28;20029;-71
2022/09/28 10:47:50;;;;;;;4.22;1.90;;;;;;;-150.27;100.00;61272.81;5208098;28;20026;-71
2022/09/28 10:50:23;;;;;;;5.82;2.20;;;;;;;-150.27;100.00;61272.81;5209768;28;20049;-71
2022/09/28 10:53:10;;;;;;;6.55;1.92;;;;;;;-150.27;100.00;61272.81;5210871;28;20029;-73
2022/09/28 10:55:56;;;;;;;5.85;1.85;;;;;;;-150.27;100.00;61272.81;5207772;28;21059;-72
2022/09/28 10:58:35;;;;;;;4.80;1.65;;;;;;;-150.27;100.00;61272.81;5212925;28;20524;-72
2022/09/28 11:01:11;;;;;;;6.07;1.98;;;;;;;-150.27;100.00;61272.81;5211511;28;20066;-72
2022/09/28 11:03:56;;;;;;;4.60;2.13;;;;;;;-150.27;100.00;61272.81;5210395;28;20033;-72
2022/09/28 11:06:37;;;;;;;4.65;1.40;;;;;;;-150.27;100.00;61272.81;5206510;28;20054;-72
2022/09/28 11:09:26;;;;;;;7.00;1.98;;;;;;;-150.27;100.00;61272.81;5209657;28;20305;-72
2022/09/28 11:11:58;;;;;;;6.18;1.60;;;;;;;-150.27;100.00;61272.81;5206786;28;20014;-72
2022/09/28 11:14:35;;;;;;;5.07;1.70;;;;;;;-150.27;100.00;61272.81;5210038;28;20088;-72
2022/09/28 11:17:37;;;;;;;3.97;1.45;;;;;;;-150.27;100.00;61272.81;5209148;28;20887;-71
2022/09/28 11:20:24;;;;;;;4.40;1.70;;;;;;;-150.27;100.00;61272.81;5209919;28;20091;-71
2022/09/28 11:23:17;;;;;;;5.70;1.77;;;;;;;-150.27;100.00;61272.81;5207881;28;20049;-71
2022/09/28 11:26:04;;;;;;;4.33;1.30;;;;;;;-150.27;100.00;61272.81;5206432;28;20057;-70
2022/09/28 11:28:37;;;;;;;4.23;1.10;;;;;;;-150.27;100.00;61272.81;5208308;28;21090;-70
2022/09/28 11:31:10;;;;;;;3.22;1.45;;;;;;;-150.27;100.00;61272.81;5209403;28;20036;-72
2022/09/28 11:33:45;;;;;;;3.10;1.30;;;;;;;-150.27;100.00;61272.81;5209538;28;20026;-70
2022/09/28 11:36:35;;;;;;;4.23;1.10;;;;;;;-150.27;100.00;61272.81;5206638;28;20711;-71
2022/09/28 11:39:16;;;;;;;5.40;1.30;;;;;;;-150.27;100.00;61272.81;5209164;28;21291;-70
2022/09/28 11:42:18;;;;;;;4.47;1.70;;;;;;;-150.27;100.00;61272.81;5208743;28;20026;-70
2022/09/28 11:45:01;;;;;;;8.53;1.70;;;;;;;-150.27;100.00;61272.81;5209600;28;20104;-70
2022/09/28 11:47:57;;;;;;;4.27;1.50;;;;;;;-150.27;100.00;61272.81;5207396;28;20018;-71
2022/09/28 11:51:02;;;;;;;4.67;1.50;;;;;;;-150.27;100.00;61272.81;5209349;28;20203;-69
2022/09/28 11:53:39;;;;;;;4.57;1.93;;;;;;;-150.27;100.00;61272.81;5207493;28;20034;-71
2022/09/28 11:56:25;;;;;;;5.90;2.10;;;;;;;-150.27;100.00;61272.81;5205147;28;20025;-70
2022/09/28 11:59:14;;;;;;;5.90;1.90;;;;;;;-150.27;100.00;61272.81;5208426;28;20018;-72
2022/09/28 12:02:04;;;;;;;5.17;1.67;;;;;;;-150.27;100.00;61272.81;5208852;28;20121;-72